Time;durP1;ratioP1;P1;durP2;ratioP2;P2;SDS_P1;SDS_P2;PMS_P1;PMS_P2;Temp;Humidity;BMP_temperature;BMP_pressure;BME280_temperature;BME280_humidity;BME280_pressure;Samples;Min_cycle;Max_cycle;Signal;HPM_P1;HPM_P2
2021/08/29 00:00:44;;;;;;;3.33;1.20;;;12.60;96.40;;;;;;5092392;28;20439;-69
2021/08/29 00:03:11;;;;;;;2.17;1.50;;;12.50;96.40;;;;;;5086163;28;20555;-69
2021/08/29 00:05:38;;;;;;;1.80;1.30;;;12.50;96.40;;;;;;5072092;28;20497;-69
2021/08/29 00:08:06;;;;;;;1.97;1.00;;;12.50;96.40;;;;;;5075528;28;20510;-69
2021/08/29 00:10:33;;;;;;;2.27;1.13;;;12.50;96.30;;;;;;5092023;28;20435;-69
2021/08/29 00:13:02;;;;;;;2.10;1.27;;;12.40;96.50;;;;;;5088878;28;20470;-69
2021/08/29 00:15:29;;;;;;;3.40;1.30;;;12.50;96.70;;;;;;5071713;28;20493;-69
2021/08/29 00:17:57;;;;;;;2.40;1.20;;;12.40;96.40;;;;;;5073335;28;20519;-69
2021/08/29 00:20:24;;;;;;;3.90;1.10;;;12.40;96.70;;;;;;5092112;28;20435;-68
2021/08/29 00:22:51;;;;;;;2.40;1.33;;;12.40;96.80;;;;;;5090633;28;20439;-70
2021/08/29 00:25:19;;;;;;;2.50;1.27;;;12.40;96.70;;;;;;5071769;28;20436;-69
2021/08/29 00:27:46;;;;;;;2.27;1.30;;;12.40;96.70;;;;;;5071694;28;20993;-69
2021/08/29 00:30:16;;;;;;;1.97;1.07;;;12.30;97.00;;;;;;5091184;28;20477;-68
2021/08/29 00:32:43;;;;;;;2.20;1.23;;;12.40;97.20;;;;;;5091920;28;20492;-69
2021/08/29 00:35:11;;;;;;;2.17;1.33;;;12.30;97.20;;;;;;5089922;28;20530;-70
2021/08/29 00:37:38;;;;;;;2.87;1.23;;;12.30;97.40;;;;;;5095920;28;20482;-70
2021/08/29 00:40:07;;;;;;;2.27;1.30;;;12.30;97.50;;;;;;5078142;28;20499;-69
2021/08/29 00:42:34;;;;;;;2.07;1.20;;;12.30;97.70;;;;;;5077262;28;20529;-69
2021/08/29 00:45:02;;;;;;;1.97;1.20;;;12.30;97.40;;;;;;5095661;28;20435;-70
2021/08/29 00:47:33;;;;;;;3.37;1.23;;;12.30;97.50;;;;;;5094372;28;20478;-69
2021/08/29 00:50:00;;;;;;;1.90;1.03;;;12.30;97.50;;;;;;5075177;28;20436;-69
2021/08/29 00:52:27;;;;;;;2.60;1.30;;;12.30;97.50;;;;;;5074398;28;20443;-71
2021/08/29 00:54:54;;;;;;;2.37;1.80;;;12.40;97.70;;;;;;5055083;28;20436;-69
2021/08/29 00:57:22;;;;;;;2.10;1.10;;;12.40;97.80;;;;;;5055135;28;20495;-69
2021/08/29 00:59:49;;;;;;;2.00;1.00;;;12.50;97.90;;;;;;5093401;28;20555;-69
2021/08/29 01:02:26;;;;;;;1.90;1.10;;;12.50;97.90;;;;;;5086985;28;20436;-69
2021/08/29 01:05:00;;;;;;;2.10;1.30;;;12.50;98.00;;;;;;5074984;28;20462;-70
2021/08/29 01:07:33;;;;;;;5.03;4.33;;;12.60;97.60;;;;;;5084232;28;21000;-69
2021/08/29 01:10:05;;;;;;;3.03;1.53;;;12.60;97.50;;;;;;5095279;28;20925;-69
2021/08/29 01:12:33;;;;;;;2.23;1.20;;;12.60;97.30;;;;;;5085184;28;20436;-69
2021/08/29 01:15:03;;;;;;;1.97;1.07;;;12.60;97.10;;;;;;5075286;28;20440;-69
2021/08/29 01:17:34;;;;;;;2.43;1.97;;;12.60;97.50;;;;;;5075891;28;20436;-69
2021/08/29 01:20:09;;;;;;;1.63;1.03;;;12.50;97.00;;;;;;5074587;28;20934;-69
2021/08/29 01:22:38;;;;;;;3.80;1.17;;;12.50;97.20;;;;;;5083075;28;20934;-69
2021/08/29 01:25:06;;;;;;;2.00;1.17;;;12.50;97.40;;;;;;5094745;28;20436;-70
2021/08/29 01:27:44;;;;;;;2.30;1.60;;;12.60;97.60;;;;;;5092889;28;20481;-69
2021/08/29 01:30:13;;;;;;;16.53;13.33;;;12.60;97.30;;;;;;5094699;28;20525;-69
2021/08/29 01:32:43;;;;;;;5.40;3.70;;;12.60;97.50;;;;;;5085850;28;20440;-69
2021/08/29 01:35:12;;;;;;;3.50;2.17;;;12.60;97.20;;;;;;5074161;28;20470;-69
2021/08/29 01:37:40;;;;;;;5.63;1.77;;;12.70;97.20;;;;;;5081368;28;20435;-70
2021/08/29 01:40:09;;;;;;;1.93;1.10;;;12.70;97.20;;;;;;5094478;28;20435;-69
2021/08/29 01:42:38;;;;;;;19.60;16.33;;;12.60;97.10;;;;;;5092586;28;20466;-69
2021/08/29 01:45:07;;;;;;;5.30;3.20;;;12.60;97.30;;;;;;5094515;28;20809;-69
2021/08/29 01:47:36;;;;;;;3.50;2.40;;;12.70;97.50;;;;;;5076664;28;20467;-69
2021/08/29 01:50:04;;;;;;;2.57;1.67;;;12.70;97.70;;;;;;5074158;28;20436;-69
2021/08/29 01:52:31;;;;;;;2.90;1.47;;;12.70;97.80;;;;;;5089416;28;20514;-69
2021/08/29 01:54:58;;;;;;;6.87;5.47;;;12.70;97.80;;;;;;5093727;28;20466;-70
2021/08/29 01:57:25;;;;;;;5.70;4.00;;;12.70;97.80;;;;;;5054064;28;20435;-69
2021/08/29 01:59:53;;;;;;;7.20;6.00;;;12.80;97.90;;;;;;5053976;28;20452;-69
2021/08/29 02:02:20;;;;;;;5.03;2.90;;;12.80;98.00;;;;;;5092136;28;20446;-69
2021/08/29 02:04:49;;;;;;;2.90;1.90;;;12.80;98.00;;;;;;5094392;28;20849;-69
2021/08/29 02:07:24;;;;;;;4.10;1.80;;;12.80;98.10;;;;;;5075618;28;20800;-69
2021/08/29 02:09:56;;;;;;;2.60;1.60;;;12.80;98.10;;;;;;5074027;28;20778;-69
2021/08/29 02:12:24;;;;;;;3.60;1.67;;;12.80;98.20;;;;;;5091676;28;20457;-69
2021/08/29 02:15:00;;;;;;;6.73;5.43;;;12.80;98.20;;;;;;5093936;28;20443;-69
2021/08/29 02:17:28;;;;;;;2.77;1.60;;;12.80;98.30;;;;;;5074896;28;20472;-69
2021/08/29 02:19:58;;;;;;;3.23;1.47;;;12.90;98.30;;;;;;5080339;28;20431;-69
2021/08/29 02:22:25;;;;;;;3.30;2.10;;;12.90;98.40;;;;;;5093495;28;20439;-69
2021/08/29 02:24:53;;;;;;;2.10;1.60;;;12.90;98.30;;;;;;5077240;28;20432;-69
2021/08/29 02:27:21;;;;;;;2.03;1.20;;;12.90;98.20;;;;;;5073318;28;20432;-68
2021/08/29 02:29:48;;;;;;;3.40;1.10;;;12.90;98.10;;;;;;5087295;28;20435;-69
2021/08/29 02:32:17;;;;;;;3.13;1.60;;;12.90;98.00;;;;;;5093594;28;20438;-69
2021/08/29 02:34:44;;;;;;;2.03;0.90;;;12.90;98.00;;;;;;5079719;28;20432;-69
2021/08/29 02:37:13;;;;;;;3.63;1.10;;;12.90;98.00;;;;;;5072893;28;20521;-69
2021/08/29 02:39:41;;;;;;;3.30;1.60;;;12.90;98.00;;;;;;5084842;28;20450;-69
2021/08/29 02:42:11;;;;;;;2.57;1.63;;;12.90;97.90;;;;;;5093382;28;20772;-69
2021/08/29 02:44:41;;;;;;;7.73;5.60;;;12.90;97.90;;;;;;5081691;28;20432;-69
2021/08/29 02:47:10;;;;;;;2.47;1.50;;;12.90;98.10;;;;;;5072884;28;20440;-69
2021/08/29 02:49:39;;;;;;;3.40;1.40;;;12.90;98.00;;;;;;5073524;28;20888;-69
2021/08/29 02:52:07;;;;;;;2.60;1.07;;;12.90;98.00;;;;;;5072721;28;20440;-69
2021/08/29 02:54:40;;;;;;;4.20;1.90;;;12.90;98.20;;;;;;5081757;28;20439;-69
2021/08/29 02:57:12;;;;;;;5.13;3.53;;;12.90;98.20;;;;;;5093083;28;20941;-69
2021/08/29 02:59:40;;;;;;;4.33;2.60;;;12.90;98.20;;;;;;5082129;28;20501;-69
2021/08/29 03:02:09;;;;;;;3.60;1.80;;;12.80;98.00;;;;;;5072849;28;20507;-70
2021/08/29 03:04:36;;;;;;;3.30;2.30;;;12.80;97.80;;;;;;5080682;28;20435;-69
2021/08/29 03:07:04;;;;;;;3.00;1.67;;;12.80;97.90;;;;;;5092861;28;20442;-69
2021/08/29 03:09:34;;;;;;;2.27;1.50;;;12.80;98.00;;;;;;5084791;28;20478;-69
2021/08/29 03:12:06;;;;;;;2.10;1.50;;;12.80;98.10;;;;;;5072243;28;20444;-68
2021/08/29 03:14:34;;;;;;;4.27;1.50;;;12.70;98.10;;;;;;5079425;28;20435;-70
2021/08/29 03:17:02;;;;;;;8.70;6.17;;;12.70;98.00;;;;;;5089335;28;20443;-69
2021/08/29 03:19:29;;;;;;;4.13;3.13;;;12.70;98.30;;;;;;5072197;28;20455;-69
2021/08/29 03:21:57;;;;;;;2.60;1.50;;;12.70;98.30;;;;;;5073703;28;20952;-69
2021/08/29 03:24:25;;;;;;;2.90;2.10;;;12.60;98.10;;;;;;5092626;28;20443;-69
2021/08/29 03:26:52;;;;;;;3.30;1.77;;;12.60;98.30;;;;;;5091784;28;20527;-70
2021/08/29 03:29:22;;;;;;;2.40;1.67;;;12.60;98.20;;;;;;5072170;28;21019;-69
2021/08/29 03:31:49;;;;;;;2.13;1.40;;;12.60;98.20;;;;;;5072423;28;20522;-71
2021/08/29 03:34:19;;;;;;;1.80;1.10;;;12.60;98.10;;;;;;5072135;28;20436;-69
2021/08/29 03:36:47;;;;;;;2.30;1.37;;;12.60;97.90;;;;;;5072343;28;20472;-69
2021/08/29 03:39:15;;;;;;;2.60;1.70;;;12.50;97.80;;;;;;5090909;28;20484;-69
2021/08/29 03:41:44;;;;;;;2.63;1.53;;;12.50;98.10;;;;;;5092323;28;20881;-69
2021/08/29 03:44:13;;;;;;;4.00;1.40;;;12.50;98.00;;;;;;5090328;28;20759;-69
2021/08/29 03:46:42;;;;;;;2.40;1.47;;;12.50;98.10;;;;;;5092269;28;20837;-69
2021/08/29 03:49:10;;;;;;;1.80;1.10;;;12.50;98.10;;;;;;5075550;28;20505;-69
2021/08/29 03:51:38;;;;;;;2.30;1.10;;;12.50;98.20;;;;;;5072192;28;20519;-68
2021/08/29 03:54:07;;;;;;;1.90;1.30;;;12.50;98.20;;;;;;5087383;28;20782;-69
2021/08/29 03:56:35;;;;;;;2.00;1.30;;;12.40;98.30;;;;;;5092438;28;20463;-69
2021/08/29 03:59:03;;;;;;;4.40;1.60;;;12.40;98.00;;;;;;5077373;28;20439;-69
2021/08/29 04:01:31;;;;;;;2.23;1.30;;;12.40;98.00;;;;;;5072190;28;20450;-69
2021/08/29 04:04:00;;;;;;;2.47;1.50;;;12.50;97.80;;;;;;5085080;28;20434;-69
2021/08/29 04:06:29;;;;;;;2.40;1.50;;;12.40;97.80;;;;;;5092410;28;20790;-69
2021/08/29 04:08:57;;;;;;;3.80;1.47;;;12.40;97.70;;;;;;5079269;28;20491;-70
2021/08/29 04:11:29;;;;;;;2.20;1.50;;;12.40;97.70;;;;;;5084717;28;20437;-69
2021/08/29 04:13:56;;;;;;;3.27;1.17;;;12.30;97.80;;;;;;5096699;28;20908;-69
2021/08/29 04:16:24;;;;;;;2.30;1.60;;;12.30;97.80;;;;;;5088242;28;20796;-69
2021/08/29 04:18:52;;;;;;;3.23;1.60;;;12.20;98.10;;;;;;5076228;28;20439;-69
2021/08/29 04:21:23;;;;;;;2.23;1.20;;;12.20;98.00;;;;;;5082447;28;20442;-69
2021/08/29 04:23:51;;;;;;;2.87;1.30;;;12.20;98.20;;;;;;5096107;28;20430;-68
2021/08/29 04:26:19;;;;;;;3.87;1.80;;;12.20;98.30;;;;;;5089656;28;20446;-69
2021/08/29 04:28:47;;;;;;;3.27;1.37;;;12.20;98.50;;;;;;5075472;28;20484;-69
2021/08/29 04:31:25;;;;;;;2.40;1.50;;;12.20;98.40;;;;;;5080257;28;20522;-69
2021/08/29 04:33:53;;;;;;;2.33;1.40;;;12.30;98.50;;;;;;5096156;28;20522;-69
2021/08/29 04:36:22;;;;;;;2.43;1.30;;;12.30;98.60;;;;;;5093628;28;20459;-69
2021/08/29 04:38:49;;;;;;;2.33;1.17;;;12.40;98.80;;;;;;5096156;28;20443;-69
2021/08/29 04:41:18;;;;;;;5.23;1.63;;;12.40;98.80;;;;;;5091272;28;20526;-69
2021/08/29 04:43:45;;;;;;;2.20;1.37;;;12.50;98.80;;;;;;5075471;28;20443;-69
2021/08/29 04:46:14;;;;;;;3.00;1.67;;;12.40;98.60;;;;;;5078045;28;20492;-70
2021/08/29 04:48:42;;;;;;;3.10;1.33;;;12.40;98.60;;;;;;5095933;28;20482;-70
2021/08/29 04:51:09;;;;;;;4.13;1.40;;;12.40;98.60;;;;;;5093044;28;20475;-69
2021/08/29 04:53:38;;;;;;;2.87;1.90;;;12.50;98.40;;;;;;5075788;28;20444;-70
2021/08/29 04:56:06;;;;;;;4.20;2.07;;;12.40;98.60;;;;;;5075658;28;20526;-70
2021/08/29 04:58:33;;;;;;;5.70;3.63;;;12.40;98.60;;;;;;5095681;28;20793;-69
2021/08/29 05:01:00;;;;;;;5.93;2.57;;;12.40;98.60;;;;;;5095157;28;20441;-70
2021/08/29 05:03:27;;;;;;;3.00;2.30;;;12.50;98.80;;;;;;5075258;28;20861;-69
2021/08/29 05:05:54;;;;;;;3.33;1.70;;;12.50;99.00;;;;;;5090506;28;20443;-69
2021/08/29 05:08:22;;;;;;;2.80;1.40;;;12.50;99.10;;;;;;5095306;28;20526;-69
2021/08/29 05:10:51;;;;;;;3.10;1.60;;;12.60;99.10;;;;;;5075376;28;20503;-75
2021/08/29 05:13:18;;;;;;;2.47;1.10;;;12.60;99.10;;;;;;5075116;28;20439;-69
2021/08/29 05:15:48;;;;;;;4.20;1.47;;;12.60;98.80;;;;;;5092975;28;20466;-69
2021/08/29 05:18:16;;;;;;;2.50;1.70;;;12.70;98.90;;;;;;5095224;28;20431;-69
2021/08/29 05:20:43;;;;;;;2.43;1.60;;;12.70;98.60;;;;;;5076337;28;20440;-69
2021/08/29 05:23:11;;;;;;;2.83;1.20;;;12.60;98.40;;;;;;5074775;28;20528;-69
2021/08/29 05:25:38;;;;;;;3.37;1.80;;;12.60;98.40;;;;;;5090600;28;20435;-69
2021/08/29 05:28:07;;;;;;;5.33;2.00;;;12.70;98.30;;;;;;5095014;28;20949;-70
2021/08/29 05:30:34;;;;;;;3.13;2.03;;;12.70;98.40;;;;;;5079061;28;20853;-71
2021/08/29 05:33:02;;;;;;;2.17;1.40;;;12.70;97.90;;;;;;5075007;28;20440;-69
2021/08/29 05:35:29;;;;;;;2.57;1.53;;;12.70;98.10;;;;;;5076131;28;20476;-70
2021/08/29 05:37:56;;;;;;;2.40;1.23;;;12.70;98.10;;;;;;5074904;28;20436;-69
2021/08/29 05:40:23;;;;;;;2.10;1.17;;;12.70;98.10;;;;;;5086743;28;20469;-69
2021/08/29 05:42:52;;;;;;;2.53;1.67;;;12.70;97.80;;;;;;5094855;28;20439;-69
2021/08/29 05:45:21;;;;;;;2.50;1.27;;;12.70;97.50;;;;;;5082984;28;20459;-69
2021/08/29 05:47:53;;;;;;;2.40;1.30;;;12.60;97.50;;;;;;5074604;28;20941;-69
2021/08/29 05:50:20;;;;;;;2.33;1.10;;;12.50;97.80;;;;;;5075440;28;20476;-69
2021/08/29 05:52:48;;;;;;;2.20;1.17;;;12.50;98.20;;;;;;5074367;28;20470;-69
2021/08/29 05:55:15;;;;;;;1.83;1.20;;;12.40;98.30;;;;;;5084497;28;20926;-69
2021/08/29 05:57:42;;;;;;;2.23;1.40;;;12.40;98.60;;;;;;5094879;28;20439;-69
2021/08/29 06:00:12;;;;;;;1.90;1.17;;;12.50;98.70;;;;;;5084785;28;20440;-69
2021/08/29 06:02:41;;;;;;;2.53;1.50;;;12.50;98.30;;;;;;5074346;28;20436;-70
2021/08/29 06:05:09;;;;;;;4.83;2.37;;;12.60;98.20;;;;;;5082665;28;20479;-69
2021/08/29 06:07:37;;;;;;;3.17;1.63;;;12.60;98.40;;;;;;5094448;28;20439;-69
2021/08/29 06:10:14;;;;;;;2.90;1.97;;;12.60;98.70;;;;;;5077866;28;20480;-70
2021/08/29 06:12:42;;;;;;;3.70;2.50;;;12.70;98.80;;;;;;5074412;28;20443;-69
2021/08/29 06:15:10;;;;;;;2.63;1.80;;;12.80;98.60;;;;;;5081715;28;20519;-69
2021/08/29 06:17:37;;;;;;;5.43;2.67;;;12.80;98.30;;;;;;5074273;28;20447;-69
2021/08/29 06:20:08;;;;;;;2.73;2.33;;;12.80;98.40;;;;;;5089076;28;20442;-69
2021/08/29 06:22:35;;;;;;;3.80;2.40;;;12.80;98.40;;;;;;5094162;28;20944;-70
2021/08/29 06:25:03;;;;;;;6.53;2.60;;;12.90;98.70;;;;;;5079451;28;20432;-69
2021/08/29 06:27:30;;;;;;;3.20;2.50;;;12.90;98.70;;;;;;5082919;28;20435;-69
2021/08/29 06:29:57;;;;;;;3.40;1.87;;;12.90;98.10;;;;;;5094195;28;20482;-72
2021/08/29 06:32:24;;;;;;;3.23;2.93;;;12.80;98.40;;;;;;5092094;28;20489;-69
2021/08/29 06:34:51;;;;;;;2.70;1.60;;;12.90;98.60;;;;;;5094035;28;20759;-69
2021/08/29 06:37:20;;;;;;;2.40;1.50;;;12.90;98.60;;;;;;5083025;28;20470;-69
2021/08/29 06:39:47;;;;;;;2.37;1.60;;;12.90;98.30;;;;;;5085550;28;20439;-71
2021/08/29 06:42:15;;;;;;;4.80;1.83;;;12.90;98.40;;;;;;5083903;28;20440;-69
2021/08/29 06:44:42;;;;;;;2.40;1.80;;;13.00;98.40;;;;;;5073349;28;20447;-70
2021/08/29 06:47:10;;;;;;;5.33;3.70;;;13.00;98.10;;;;;;5081444;28;20439;-69
2021/08/29 06:49:37;;;;;;;2.90;2.03;;;13.00;98.20;;;;;;5093737;28;20505;-69
2021/08/29 06:52:05;;;;;;;3.90;1.97;;;13.00;98.00;;;;;;5078536;28;20443;-69
2021/08/29 06:54:37;;;;;;;2.90;2.17;;;13.00;97.90;;;;;;5073195;28;20515;-69
2021/08/29 06:57:08;;;;;;;2.70;2.10;;;13.00;98.00;;;;;;5063907;28;20797;-70
2021/08/29 06:59:37;;;;;;;2.60;1.80;;;13.10;98.30;;;;;;5066703;28;20987;-69
2021/08/29 07:02:08;;;;;;;2.97;1.77;;;13.10;98.40;;;;;;5055523;28;20468;-69
2021/08/29 07:04:44;;;;;;;2.40;1.90;;;13.20;98.60;;;;;;5052575;28;20802;-70
2021/08/29 07:07:15;;;;;;;2.00;1.40;;;13.30;98.50;;;;;;5064621;28;20447;-69
2021/08/29 07:09:45;;;;;;;2.67;1.70;;;13.30;98.20;;;;;;5054041;28;20469;-69
2021/08/29 07:12:15;;;;;;;3.40;1.77;;;13.30;98.20;;;;;;5066216;28;20801;-69
2021/08/29 07:14:43;;;;;;;2.97;2.27;;;13.30;98.30;;;;;;5070205;28;20439;-69
2021/08/29 07:17:14;;;;;;;5.70;2.90;;;13.40;98.40;;;;;;5061802;28;20524;-69
2021/08/29 07:19:46;;;;;;;3.60;2.13;;;13.50;98.60;;;;;;5066203;28;20489;-69
2021/08/29 07:22:14;;;;;;;3.67;2.57;;;13.50;98.40;;;;;;5064746;28;20440;-69
2021/08/29 07:24:41;;;;;;;5.03;2.83;;;13.50;98.40;;;;;;5052562;28;20792;-69
2021/08/29 07:27:09;;;;;;;2.93;2.03;;;13.60;98.00;;;;;;5069752;28;20451;-69
2021/08/29 07:30:05;;;;;;;3.30;2.03;;;13.60;98.10;;;;;;5056683;28;20568;-70
2021/08/29 07:32:32;;;;;;;2.90;1.73;;;13.70;98.10;;;;;;5052080;28;21814;-70
2021/08/29 07:35:00;;;;;;;6.10;2.40;;;13.80;98.50;;;;;;5052603;28;20441;-69
2021/08/29 07:37:27;;;;;;;3.93;2.80;;;13.90;98.60;;;;;;5058938;28;20480;-69
2021/08/29 07:39:55;;;;;;;2.90;2.10;;;14.00;98.70;;;;;;5059105;28;20799;-69
2021/08/29 07:42:24;;;;;;;3.17;2.03;;;14.00;98.60;;;;;;5054619;28;20935;-68
2021/08/29 07:44:51;;;;;;;4.57;3.20;;;14.10;98.20;;;;;;5060228;28;20511;-68
2021/08/29 07:47:18;;;;;;;4.30;2.47;;;14.20;98.30;;;;;;5069430;28;20443;-69
2021/08/29 07:49:46;;;;;;;3.40;2.33;;;14.30;98.30;;;;;;5070406;28;20470;-69
2021/08/29 07:52:13;;;;;;;2.80;1.90;;;14.30;98.00;;;;;;5052023;28;20437;-69
2021/08/29 07:54:40;;;;;;;3.20;1.90;;;14.30;97.90;;;;;;5065538;28;20923;-70
2021/08/29 07:57:07;;;;;;;2.90;2.03;;;14.40;97.90;;;;;;5065462;28;20443;-69
2021/08/29 07:59:36;;;;;;;3.70;1.80;;;14.40;97.60;;;;;;5070472;28;20441;-69
2021/08/29 08:02:04;;;;;;;2.90;1.70;;;14.40;97.70;;;;;;5069478;28;20428;-68
2021/08/29 08:04:31;;;;;;;2.70;1.77;;;14.50;97.70;;;;;;5069204;28;20440;-70
2021/08/29 08:06:59;;;;;;;3.40;1.83;;;14.50;97.30;;;;;;5070534;28;20432;-70
2021/08/29 08:09:26;;;;;;;3.67;2.10;;;14.50;97.10;;;;;;5069415;28;20485;-70
2021/08/29 08:11:53;;;;;;;4.20;2.60;;;14.50;97.40;;;;;;5069464;28;20543;-70
2021/08/29 08:14:21;;;;;;;4.70;3.40;;;14.50;97.50;;;;;;5051544;28;21354;-70
2021/08/29 08:16:49;;;;;;;4.07;2.83;;;14.50;97.40;;;;;;5051663;28;20528;-68
2021/08/29 08:19:17;;;;;;;3.97;3.20;;;14.50;97.30;;;;;;5054694;28;20433;-68
2021/08/29 08:21:44;;;;;;;5.00;2.90;;;14.60;97.30;;;;;;5051745;28;20471;-75
2021/08/29 08:24:12;;;;;;;3.90;2.37;;;14.60;97.30;;;;;;5058132;28;20498;-68
2021/08/29 08:26:39;;;;;;;6.80;2.70;;;14.70;97.20;;;;;;5051655;28;20437;-69
2021/08/29 08:29:07;;;;;;;2.80;2.00;;;14.70;96.90;;;;;;5058102;28;20452;-69
2021/08/29 08:31:34;;;;;;;3.27;2.47;;;14.70;97.10;;;;;;5051463;28;20480;-70
2021/08/29 08:34:03;;;;;;;2.20;1.60;;;14.70;97.00;;;;;;5060602;28;20448;-69
2021/08/29 08:36:30;;;;;;;3.73;2.60;;;14.70;96.90;;;;;;5052176;28;20472;-68
2021/08/29 08:38:59;;;;;;;3.30;2.40;;;14.80;97.10;;;;;;5051545;28;20490;-69
2021/08/29 08:41:27;;;;;;;7.07;6.10;;;14.80;97.30;;;;;;5060977;28;20445;-68
2021/08/29 08:43:54;;;;;;;4.30;2.93;;;14.90;97.60;;;;;;5050954;28;20433;-69
2021/08/29 08:46:22;;;;;;;3.20;2.33;;;15.00;97.80;;;;;;5055791;28;20494;-74
2021/08/29 08:49:02;;;;;;;3.83;2.57;;;15.20;97.40;;;;;;5051331;28;20437;-70
2021/08/29 08:51:43;;;;;;;3.10;2.50;;;15.30;96.90;;;;;;5052253;28;20491;-69
2021/08/29 08:54:18;;;;;;;6.50;2.60;;;15.40;96.60;;;;;;5049523;28;20467;-70
2021/08/29 08:56:47;;;;;;;3.20;2.30;;;15.40;96.60;;;;;;5071435;28;20519;-68
2021/08/29 08:59:16;;;;;;;4.10;2.17;;;15.50;96.80;;;;;;5071760;28;20436;-69
2021/08/29 09:01:43;;;;;;;4.67;2.63;;;15.60;96.80;;;;;;5060206;28;20433;-69
2021/08/29 09:04:12;;;;;;;3.37;2.17;;;15.70;96.60;;;;;;5058688;28;20449;-69
2021/08/29 09:06:41;;;;;;;3.67;2.57;;;15.70;95.60;;;;;;5055123;28;20440;-69
2021/08/29 09:09:11;;;;;;;6.47;4.50;;;15.80;95.60;;;;;;5068976;28;20449;-69
2021/08/29 09:11:40;;;;;;;5.20;3.87;;;15.90;95.60;;;;;;5057098;28;20491;-69
2021/08/29 09:14:09;;;;;;;5.20;4.17;;;16.10;95.60;;;;;;5063228;28;20489;-70
2021/08/29 09:16:37;;;;;;;3.20;2.57;;;16.30;95.80;;;;;;5058679;28;20452;-69
2021/08/29 09:19:09;;;;;;;4.73;3.40;;;16.40;95.80;;;;;;5055059;28;20473;-70
2021/08/29 09:21:38;;;;;;;4.07;2.77;;;16.50;95.60;;;;;;5063368;28;20479;-69
2021/08/29 09:24:11;;;;;;;4.27;3.50;;;16.60;95.00;;;;;;5067694;28;20433;-70
2021/08/29 09:26:42;;;;;;;4.30;2.77;;;16.50;93.50;;;;;;5072163;28;20436;-69
2021/08/29 09:29:20;;;;;;;5.20;2.80;;;16.40;93.30;;;;;;5073091;28;20440;-70
2021/08/29 09:31:49;;;;;;;3.20;1.80;;;16.20;92.90;;;;;;5069169;28;20981;-71
2021/08/29 09:34:21;;;;;;;2.67;1.80;;;16.00;93.10;;;;;;5070055;28;21012;-69
2021/08/29 09:36:51;;;;;;;3.70;2.10;;;15.70;93.60;;;;;;5058257;28;20477;-68
2021/08/29 09:39:22;;;;;;;4.37;2.60;;;15.70;93.70;;;;;;5061564;28;20459;-70
2021/08/29 09:42:01;;;;;;;4.53;3.93;;;15.60;93.90;;;;;;5070517;28;20435;-70
2021/08/29 09:44:33;;;;;;;3.73;2.60;;;15.50;93.80;;;;;;5065736;28;20440;-68
2021/08/29 09:47:06;;;;;;;2.80;2.10;;;15.40;94.50;;;;;;5071311;28;20848;-70
2021/08/29 09:49:39;;;;;;;3.07;1.80;;;15.30;94.90;;;;;;5062918;28;20935;-69
2021/08/29 09:52:09;;;;;;;6.37;1.60;;;15.20;95.00;;;;;;5053513;28;20521;-69
2021/08/29 09:54:41;;;;;;;12.67;2.33;;;15.20;95.30;;;;;;5068021;28;20897;-69
2021/08/29 09:57:10;;;;;;;3.13;2.30;;;15.30;95.80;;;;;;5055548;28;20441;-68
2021/08/29 09:59:39;;;;;;;3.77;2.80;;;15.40;95.90;;;;;;5053074;28;20460;-68
2021/08/29 10:02:09;;;;;;;4.00;2.27;;;15.40;95.50;;;;;;5060570;28;20441;-69
2021/08/29 10:04:39;;;;;;;3.00;1.63;;;15.40;95.30;;;;;;5053948;28;20436;-70
2021/08/29 10:07:17;;;;;;;3.13;2.10;;;15.60;95.90;;;;;;5053751;28;20464;-68
2021/08/29 10:09:48;;;;;;;5.07;2.50;;;15.70;95.20;;;;;;5053301;28;20957;-68
2021/08/29 10:12:15;;;;;;;4.00;2.53;;;15.90;95.40;;;;;;5063843;28;20467;-69
2021/08/29 10:14:43;;;;;;;3.53;2.13;;;16.20;96.10;;;;;;5070876;28;20519;-70
2021/08/29 10:17:16;;;;;;;3.60;2.27;;;16.60;95.60;;;;;;5071479;28;20507;-69
2021/08/29 10:19:45;;;;;;;3.50;2.63;;;17.30;96.70;;;;;;5069387;28;20433;-69
2021/08/29 10:22:12;;;;;;;3.17;2.10;;;18.60;99.20;;;;;;5056496;28;20445;-74
2021/08/29 10:24:40;;;;;;;3.00;2.00;;;19.90;94.40;;;;;;5063809;28;20441;-69
2021/08/29 10:27:14;;;;;;;2.80;1.93;;;20.70;89.90;;;;;;5062467;28;20448;-69
2021/08/29 10:29:46;;;;;;;3.87;2.90;;;21.20;87.20;;;;;;5061587;28;20447;-72
2021/08/29 10:32:24;;;;;;;3.10;2.20;;;21.20;78.60;;;;;;5061592;28;20502;-69
2021/08/29 10:34:57;;;;;;;2.70;1.97;;;21.00;78.60;;;;;;5059396;28;20447;-71
2021/08/29 10:37:25;;;;;;;2.53;1.80;;;20.70;78.60;;;;;;5061178;28;20463;-69
2021/08/29 10:39:52;;;;;;;4.07;1.70;;;20.40;79.00;;;;;;5062070;28;20443;-70
2021/08/29 10:42:22;;;;;;;4.73;1.93;;;20.00;80.10;;;;;;5065979;28;20463;-71
2021/08/29 10:44:49;;;;;;;2.40;1.60;;;19.70;80.90;;;;;;5054527;28;20528;-69
2021/08/29 10:47:18;;;;;;;3.00;1.93;;;19.40;81.50;;;;;;5063880;28;20536;-69
2021/08/29 10:49:48;;;;;;;2.50;1.70;;;19.10;82.40;;;;;;5058687;28;20906;-69
2021/08/29 10:52:15;;;;;;;2.27;1.70;;;18.90;82.80;;;;;;5064934;28;20480;-70
2021/08/29 10:54:52;;;;;;;2.43;1.77;;;18.60;85.20;;;;;;5060602;28;20449;-70
2021/08/29 10:57:32;;;;;;;4.03;2.63;;;18.40;86.40;;;;;;5063435;28;20448;-68
2021/08/29 11:00:06;;;;;;;4.07;2.63;;;18.60;91.90;;;;;;5064349;28;20475;-69
2021/08/29 11:02:38;;;;;;;3.93;2.57;;;19.30;91.20;;;;;;5062140;28;20462;-70
2021/08/29 11:05:07;;;;;;;2.90;1.70;;;19.80;88.40;;;;;;5059535;28;20443;-69
2021/08/29 11:07:48;;;;;;;2.60;1.80;;;20.00;86.60;;;;;;5062828;28;20821;-69
2021/08/29 11:10:45;;;;;;;2.17;1.53;;;20.10;85.20;;;;;;5060977;28;20495;-69
2021/08/29 11:13:43;;;;;;;2.33;1.53;;;19.90;81.80;;;;;;5061102;28;21055;-69
2021/08/29 11:16:24;;;;;;;2.40;1.40;;;19.60;81.10;;;;;;5062122;28;21370;-69
2021/08/29 11:19:12;;;;;;;3.23;2.03;;;19.30;82.50;;;;;;5056686;28;20465;-69
2021/08/29 11:22:17;;;;;;;2.73;1.90;;;19.10;82.90;;;;;;5061081;28;20455;-69
2021/08/29 11:24:49;;;;;;;2.63;1.83;;;18.90;82.20;;;;;;5058636;28;20455;-69
2021/08/29 11:27:56;;;;;;;2.87;1.60;;;18.60;83.50;;;;;;5062101;28;20441;-69
2021/08/29 11:30:26;;;;;;;3.50;1.50;;;18.40;85.60;;;;;;5051200;28;20540;-70
2021/08/29 11:33:00;;;;;;;3.03;1.77;;;18.10;86.90;;;;;;5058372;28;20441;-69
2021/08/29 11:35:29;;;;;;;4.63;2.00;;;17.90;87.10;;;;;;5055994;28;20479;-72
2021/08/29 11:38:03;;;;;;;2.40;1.63;;;17.80;88.10;;;;;;5057993;28;20515;-68
2021/08/29 11:40:52;;;;;;;2.40;1.50;;;17.60;88.10;;;;;;5058147;28;20486;-69
2021/08/29 11:43:21;;;;;;;2.27;0.90;;;17.50;89.90;;;;;;5058464;28;20433;-68
2021/08/29 11:45:59;;;;;;;2.40;1.10;;;17.40;90.40;;;;;;5060676;28;20460;-69
2021/08/29 11:48:28;;;;;;;2.70;1.37;;;17.40;90.40;;;;;;5055115;28;20433;-68
2021/08/29 11:50:55;;;;;;;2.33;1.23;;;17.40;90.60;;;;;;5056874;28;20559;-69
2021/08/29 11:53:23;;;;;;;4.20;2.20;;;17.40;90.80;;;;;;5061348;28;20842;-70
2021/08/29 11:55:56;;;;;;;2.10;1.30;;;17.60;91.10;;;;;;5057701;28;20519;-69
2021/08/29 11:58:24;;;;;;;2.77;1.50;;;17.90;91.70;;;;;;5059729;28;20812;-72
2021/08/29 12:01:02;;;;;;;2.30;1.10;;;18.40;91.70;;;;;;5056753;28;20487;-68
2021/08/29 12:03:34;;;;;;;1.90;1.20;;;19.20;92.30;;;;;;5052948;28;20436;-72
2021/08/29 12:06:07;;;;;;;1.70;0.80;;;19.80;90.70;;;;;;5055740;28;20515;-69
2021/08/29 12:08:43;;;;;;;1.77;1.03;;;20.20;88.60;;;;;;5056872;28;20444;-69
2021/08/29 12:11:11;;;;;;;2.10;1.00;;;20.50;86.10;;;;;;5060535;28;20932;-69
2021/08/29 12:13:41;;;;;;;2.30;1.00;;;21.00;84.90;;;;;;5053526;28;20428;-70
2021/08/29 12:16:10;;;;;;;2.30;1.10;;;21.40;82.80;;;;;;5067382;28;20531;-69
2021/08/29 12:18:39;;;;;;;1.70;0.70;;;21.90;81.60;;;;;;5068700;28;20478;-69
2021/08/29 12:21:07;;;;;;;2.10;1.07;;;22.30;80.10;;;;;;5067821;28;20467;-69
2021/08/29 12:23:35;;;;;;;2.20;0.97;;;22.60;78.70;;;;;;5054559;28;20483;-69
2021/08/29 12:26:03;;;;;;;3.73;1.00;;;22.90;77.40;;;;;;5058856;28;20519;-70
2021/08/29 12:28:31;;;;;;;1.70;0.90;;;23.10;74.30;;;;;;5058275;28;20482;-69
2021/08/29 12:30:58;;;;;;;2.40;1.00;;;23.20;71.10;;;;;;5063413;28;20603;-69
2021/08/29 12:33:29;;;;;;;1.80;0.90;;;23.40;69.80;;;;;;5068744;28;20519;-69
2021/08/29 12:35:57;;;;;;;1.70;0.90;;;23.50;70.00;;;;;;5067682;28;20878;-69
2021/08/29 12:38:25;;;;;;;2.47;1.07;;;23.40;68.30;;;;;;5067423;28;21020;-69
2021/08/29 12:40:54;;;;;;;1.90;0.90;;;23.40;70.10;;;;;;5067286;28;20467;-69
2021/08/29 12:43:21;;;;;;;2.23;0.80;;;23.30;67.00;;;;;;5063223;28;20441;-69
2021/08/29 12:45:49;;;;;;;1.77;0.73;;;23.10;68.30;;;;;;5064048;28;20484;-69
2021/08/29 12:48:17;;;;;;;1.97;0.93;;;23.00;69.40;;;;;;5059938;28;20438;-69
2021/08/29 12:50:50;;;;;;;1.77;0.87;;;23.10;71.10;;;;;;5064763;28;20914;-69
2021/08/29 12:53:20;;;;;;;1.70;0.77;;;23.10;66.40;;;;;;5063662;28;20439;-69
2021/08/29 12:55:51;;;;;;;1.70;0.80;;;23.10;64.40;;;;;;5063853;28;20539;-69
2021/08/29 12:58:21;;;;;;;2.07;0.77;;;22.80;64.00;;;;;;5064357;28;20485;-69